Time;durP1;ratioP1;P1;durP2;ratioP2;P2;SDS_P1;SDS_P2;PMS_P1;PMS_P2;Temp;Humidity;BMP_temperature;BMP_pressure;BME280_temperature;BME280_humidity;BME280_pressure;Samples;Min_cycle;Max_cycle;Signal;HPM_P1;HPM_P2
2022/10/05 00:02:21;;;;;;;8.50;5.55;;;15.40;99.90;;;;;;5052588;28;20043;-62
2022/10/05 00:04:56;;;;;;;9.38;6.15;;;15.40;99.90;;;;;;5052080;28;20410;-62
2022/10/05 00:07:23;;;;;;;16.55;6.18;;;15.40;99.90;;;;;;5068553;28;20044;-62
2022/10/05 00:09:59;;;;;;;10.82;5.32;;;15.40;99.90;;;;;;5068037;28;20049;-62
2022/10/05 00:12:26;;;;;;;7.45;4.95;;;15.40;99.90;;;;;;5035201;28;20033;-63
2022/10/05 00:14:59;;;;;;;10.90;4.53;;;15.40;99.90;;;;;;5085478;28;20049;-62
2022/10/05 00:17:27;;;;;;;6.90;3.95;;;15.40;99.90;;;;;;5052060;28;20577;-62
2022/10/05 00:19:53;;;;;;;10.50;4.45;;;15.30;99.90;;;;;;5053026;28;20041;-62
2022/10/05 00:22:22;;;;;;;6.80;3.95;;;15.40;99.90;;;;;;5053057;28;20041;-62
2022/10/05 00:24:53;;;;;;;8.48;4.50;;;15.40;99.90;;;;;;5052077;28;20037;-62
2022/10/05 00:27:23;;;;;;;6.38;4.15;;;15.40;99.90;;;;;;5051607;28;20041;-62
2022/10/05 00:29:51;;;;;;;8.50;4.15;;;15.40;99.90;;;;;;5084958;28;20074;-62
2022/10/05 00:32:17;;;;;;;12.88;4.57;;;15.40;99.90;;;;;;5050842;28;20083;-62
2022/10/05 00:34:44;;;;;;;6.57;4.07;;;15.40;99.90;;;;;;5085214;28;20076;-62
2022/10/05 00:37:10;;;;;;;8.07;5.00;;;15.40;99.90;;;;;;5052362;28;20052;-62
2022/10/05 00:39:38;;;;;;;7.57;4.10;;;15.40;99.90;;;;;;5084092;28;20087;-62
2022/10/05 00:42:13;;;;;;;7.22;3.22;;;15.40;99.90;;;;;;5067840;28;20568;-63
2022/10/05 00:44:41;;;;;;;;;;;15.40;99.90;;;;;;5084946;28;20048;-62
2022/10/05 00:47:28;;;;;;;6.70;3.75;;;15.40;99.90;;;;;;5067416;28;19927;-62
2022/10/05 00:50:22;;;;;;;7.53;3.47;;;15.40;99.90;;;;;;5084847;28;20102;-62
2022/10/05 00:52:59;;;;;;;8.27;3.58;;;15.40;99.90;;;;;;5051563;28;20033;-63
2022/10/05 00:55:28;;;;;;;7.78;3.95;;;15.40;99.90;;;;;;5052387;28;20037;-62
2022/10/05 00:57:59;;;;;;;7.38;3.33;;;15.40;99.90;;;;;;5052366;28;20452;-62
2022/10/05 01:00:26;;;;;;;6.03;3.45;;;15.40;99.90;;;;;;5083761;28;20120;-62
2022/10/05 01:03:12;;;;;;;8.68;3.63;;;15.40;99.90;;;;;;5052110;28;20068;-62
2022/10/05 01:05:44;;;;;;;6.93;3.60;;;15.40;99.90;;;;;;5051827;28;20436;-62
2022/10/05 01:08:53;;;;;;;5.30;3.10;;;15.40;99.90;;;;;;5084749;28;20090;-62
2022/10/05 01:11:26;;;;;;;8.32;3.67;;;15.40;99.90;;;;;;5084487;28;20045;-62
2022/10/05 01:14:16;;;;;;;8.20;3.60;;;15.40;99.90;;;;;;5084056;28;20453;-62
2022/10/05 01:16:57;;;;;;;8.00;3.78;;;15.30;99.90;;;;;;5052391;28;20374;-62
2022/10/05 01:19:44;;;;;;;9.38;3.13;;;15.40;99.90;;;;;;5084370;28;20087;-62
2022/10/05 01:22:35;;;;;;;9.13;4.18;;;15.30;99.90;;;;;;5067790;28;20490;-63
2022/10/05 01:25:26;;;;;;;6.25;3.20;;;15.30;99.90;;;;;;5052188;28;20399;-63
2022/10/05 01:28:07;;;;;;;5.20;3.10;;;15.30;99.90;;;;;;5051353;28;20041;-62
2022/10/05 01:30:43;;;;;;;5.50;3.40;;;15.30;99.90;;;;;;5084066;28;20036;-62
2022/10/05 01:33:24;;;;;;;5.88;4.00;;;15.30;99.90;;;;;;5084207;28;20098;-63
2022/10/05 01:35:57;;;;;;;8.55;3.55;;;15.30;99.90;;;;;;5051185;28;20116;-62
2022/10/05 01:38:46;;;;;;;6.72;3.25;;;15.30;99.90;;;;;;5051798;28;20080;-62
2022/10/05 01:41:59;;;;;;;7.88;4.20;;;15.30;99.90;;;;;;5051012;28;20048;-63
2022/10/05 01:44:45;;;;;;;7.72;4.38;;;15.30;99.90;;;;;;5035143;28;20136;-63
2022/10/05 01:47:35;;;;;;;6.55;3.75;;;15.20;99.90;;;;;;5046797;28;20052;-62
2022/10/05 01:50:24;;;;;;;7.32;4.25;;;15.20;99.90;;;;;;5086935;28;20068;-62
2022/10/05 01:53:18;;;;;;;7.63;4.30;;;15.20;99.90;;;;;;5055731;28;20094;-62
2022/10/05 01:56:07;;;;;;;6.97;4.05;;;15.20;99.90;;;;;;5053975;28;20052;-62
2022/10/05 01:58:52;;;;;;;7.88;4.95;;;15.20;99.90;;;;;;5054448;28;20532;-63
2022/10/05 02:01:42;;;;;;;7.25;4.32;;;15.10;99.90;;;;;;5088017;28;20041;-63
2022/10/05 02:04:19;;;;;;;7.13;4.53;;;15.10;99.90;;;;;;5087458;28;20067;-63
2022/10/05 02:06:49;;;;;;;8.43;4.22;;;15.10;99.90;;;;;;5087699;28;20059;-62
2022/10/05 02:09:27;;;;;;;8.50;4.68;;;15.10;99.90;;;;;;5054632;28;20029;-62
2022/10/05 02:12:01;;;;;;;10.43;5.13;;;15.10;99.90;;;;;;5087551;28;20053;-62
2022/10/05 02:14:36;;;;;;;8.85;4.55;;;15.10;99.90;;;;;;5055525;28;20381;-62
2022/10/05 02:17:10;;;;;;;7.30;4.60;;;15.10;99.90;;;;;;5054762;28;20434;-62
2022/10/05 02:19:43;;;;;;;9.00;4.88;;;15.10;99.90;;;;;;5087602;28;20051;-62
2022/10/05 02:22:30;;;;;;;8.35;4.90;;;15.10;99.90;;;;;;5055013;28;20512;-63
2022/10/05 02:25:00;;;;;;;7.40;4.50;;;15.10;99.90;;;;;;5086832;28;20047;-62
2022/10/05 02:27:48;;;;;;;8.30;4.90;;;15.10;99.90;;;;;;5055203;28;20044;-63
2022/10/05 02:30:16;;;;;;;7.05;5.20;;;15.10;99.90;;;;;;5086607;28;20842;-62
2022/10/05 02:32:54;;;;;;;8.23;5.13;;;15.10;99.90;;;;;;5087538;28;20052;-62
2022/10/05 02:35:20;;;;;;;7.07;4.68;;;15.10;99.90;;;;;;5087336;28;20037;-62
2022/10/05 02:37:56;;;;;;;9.40;4.30;;;15.10;99.90;;;;;;5086662;28;20067;-62
2022/10/05 02:41:01;;;;;;;13.18;4.88;;;15.10;99.90;;;;;;5087588;28;20044;-63
2022/10/05 02:44:15;;;;;;;6.57;3.97;;;15.10;99.90;;;;;;5086860;28;20048;-62
2022/10/05 02:46:50;;;;;;;7.25;3.38;;;15.10;99.90;;;;;;5036213;28;20052;-63
2022/10/05 02:49:31;;;;;;;;;;;15.10;99.90;;;;;;5054948;28;20068;-62
2022/10/05 02:52:07;;;;;;;5.50;3.28;;;15.10;99.90;;;;;;5053972;28;20011;-63
2022/10/05 02:55:05;;;;;;;7.25;3.75;;;15.10;99.90;;;;;;5087056;28;20064;-62
2022/10/05 02:57:48;;;;;;;7.63;4.60;;;15.20;99.90;;;;;;5053125;28;20041;-62
2022/10/05 03:00:23;;;;;;;6.35;2.92;;;15.20;99.90;;;;;;5053140;28;20044;-62
2022/10/05 03:02:51;;;;;;;5.47;2.75;;;15.20;99.90;;;;;;5086736;28;20037;-62
2022/10/05 03:05:22;;;;;;;9.38;3.30;;;15.20;99.90;;;;;;5053605;28;20493;-62
2022/10/05 03:07:58;;;;;;;7.32;2.83;;;15.20;99.90;;;;;;5054265;28;20037;-62
2022/10/05 03:10:32;;;;;;;6.57;3.20;;;15.20;99.90;;;;;;5054142;28;20049;-62
2022/10/05 03:13:07;;;;;;;6.25;3.25;;;15.20;99.90;;;;;;5053416;28;20037;-63
2022/10/05 03:15:54;;;;;;;8.52;3.30;;;15.20;99.90;;;;;;5087009;28;20077;-63
2022/10/05 03:18:41;;;;;;;6.22;3.15;;;15.20;99.90;;;;;;5086522;28;20071;-63
2022/10/05 03:21:18;;;;;;;7.72;3.63;;;15.20;99.90;;;;;;5053584;28;20135;-62
2022/10/05 03:23:55;;;;;;;5.78;3.08;;;15.20;99.90;;;;;;5054466;28;20039;-63
2022/10/05 03:26:41;;;;;;;5.45;2.60;;;15.20;99.90;;;;;;5053107;28;20033;-62
2022/10/05 03:29:42;;;;;;;10.70;3.33;;;15.20;99.90;;;;;;5086210;28;20037;-63
2022/10/05 03:32:20;;;;;;;4.57;2.30;;;15.20;99.90;;;;;;5086372;28;20059;-63
2022/10/05 03:34:57;;;;;;;6.40;2.83;;;15.20;99.90;;;;;;5053182;28;20037;-63
2022/10/05 03:38:00;;;;;;;5.63;2.42;;;15.20;99.90;;;;;;5085988;28;20053;-62
2022/10/05 03:40:50;;;;;;;4.63;2.30;;;15.20;99.90;;;;;;5085119;28;20044;-63
2022/10/05 03:43:33;;;;;;;4.90;2.28;;;15.20;99.90;;;;;;5086013;28;20049;-63
2022/10/05 03:46:27;;;;;;;5.32;2.25;;;15.20;99.90;;;;;;5086118;28;20477;-62
2022/10/05 03:49:15;;;;;;;5.03;2.67;;;15.20;99.90;;;;;;5052446;28;20049;-62
2022/10/05 03:52:16;;;;;;;5.43;1.90;;;15.20;99.90;;;;;;5052510;28;20160;-63
2022/10/05 03:54:47;;;;;;;4.70;2.03;;;15.20;99.90;;;;;;5051810;28;20115;-62
2022/10/05 03:57:18;;;;;;;4.25;2.00;;;15.20;99.90;;;;;;5085811;28;20310;-63
2022/10/05 04:00:01;;;;;;;4.90;2.03;;;15.20;99.90;;;;;;5086241;28;20048;-62
2022/10/05 04:02:28;;;;;;;4.20;2.08;;;15.20;99.90;;;;;;5052350;28;20041;-62
2022/10/05 04:05:23;;;;;;;4.93;1.88;;;15.20;99.90;;;;;;5053395;28;20041;-63
2022/10/05 04:07:49;;;;;;;4.60;2.47;;;15.20;99.90;;;;;;5049993;28;20113;-63
2022/10/05 04:10:37;;;;;;;4.35;2.00;;;15.20;99.90;;;;;;5051299;28;20045;-63
2022/10/05 04:13:10;;;;;;;6.00;2.65;;;15.20;99.90;;;;;;5040385;28;20125;-62
2022/10/05 04:15:48;;;;;;;5.60;2.57;;;15.20;99.90;;;;;;5052353;28;20563;-63
2022/10/05 04:18:37;;;;;;;4.85;2.13;;;15.20;99.90;;;;;;5085684;28;20150;-62
2022/10/05 04:21:20;;;;;;;7.13;2.40;;;15.20;99.90;;;;;;5052815;28;20037;-63
2022/10/05 04:23:59;;;;;;;5.22;2.28;;;15.20;99.90;;;;;;5050979;28;20080;-62
2022/10/05 04:26:39;;;;;;;4.68;2.10;;;15.20;99.90;;;;;;5052912;28;20045;-62
2022/10/05 04:29:16;;;;;;;4.45;2.25;;;15.20;99.90;;;;;;5052902;28;20401;-63
2022/10/05 04:31:49;;;;;;;7.63;2.63;;;15.20;99.90;;;;;;5084805;28;20049;-62
2022/10/05 04:34:26;;;;;;;4.18;1.75;;;15.20;99.90;;;;;;5052955;28;20110;-62
2022/10/05 04:37:00;;;;;;;6.22;2.33;;;15.20;99.90;;;;;;5084409;28;20076;-62
2022/10/05 04:39:33;;;;;;;5.10;2.20;;;15.20;99.90;;;;;;5085117;28;20063;-63
2022/10/05 04:42:17;;;;;;;5.47;2.05;;;15.20;99.90;;;;;;5067972;28;20060;-63
2022/10/05 04:44:54;;;;;;;6.72;2.33;;;15.20;99.90;;;;;;5084504;28;20052;-63
2022/10/05 04:47:34;;;;;;;6.80;2.97;;;15.20;99.90;;;;;;5084450;28;20056;-62
2022/10/05 04:50:19;;;;;;;4.57;2.40;;;15.20;99.90;;;;;;5051054;28;20490;-63
2022/10/05 04:53:03;;;;;;;7.25;2.67;;;15.20;99.90;;;;;;5083830;28;20087;-63
2022/10/05 04:55:53;;;;;;;7.80;3.10;;;15.20;99.90;;;;;;5084653;28;20137;-62
2022/10/05 04:58:30;;;;;;;7.20;2.85;;;15.20;99.90;;;;;;5083830;28;20509;-62
2022/10/05 05:01:25;;;;;;;7.30;2.65;;;15.20;99.90;;;;;;5052221;28;20032;-62
2022/10/05 05:04:00;;;;;;;7.70;2.92;;;15.20;99.90;;;;;;5052345;28;20040;-62
2022/10/05 05:06:40;;;;;;;6.10;2.83;;;15.20;99.90;;;;;;5050378;28;20037;-63
2022/10/05 05:09:40;;;;;;;5.68;2.60;;;15.20;99.90;;;;;;5084426;28;20072;-62
2022/10/05 05:12:48;;;;;;;8.50;3.28;;;15.10;99.90;;;;;;5083776;28;20129;-63
2022/10/05 05:15:45;;;;;;;9.90;2.85;;;15.20;99.90;;;;;;5051070;28;20048;-62
2022/10/05 05:18:23;;;;;;;11.15;3.15;;;15.10;99.90;;;;;;5050974;28;20091;-62
2022/10/05 05:21:01;;;;;;;7.25;3.20;;;15.10;99.90;;;;;;5083937;28;20385;-62
2022/10/05 05:23:52;;;;;;;7.30;3.50;;;15.10;99.90;;;;;;5050391;28;20159;-63
2022/10/05 05:26:26;;;;;;;9.77;3.80;;;15.10;99.90;;;;;;5083325;28;20493;-62
2022/10/05 05:29:19;;;;;;;7.05;3.95;;;15.00;99.90;;;;;;5084269;28;20041;-62
2022/10/05 05:32:08;;;;;;;8.25;4.47;;;15.00;99.90;;;;;;5051829;28;20116;-62
2022/10/05 05:35:10;;;;;;;8.40;4.65;;;15.00;99.90;;;;;;5083550;28;20048;-62
2022/10/05 05:38:03;;;;;;;8.10;4.63;;;14.90;99.90;;;;;;5043902;28;20052;-63
2022/10/05 05:40:55;;;;;;;7.80;4.88;;;14.90;99.90;;;;;;5051266;28;20386;-63
2022/10/05 05:43:29;;;;;;;7.07;4.45;;;14.90;99.90;;;;;;5080454;28;20398;-62
2022/10/05 05:45:59;;;;;;;8.55;4.65;;;14.90;99.90;;;;;;5017509;28;20033;-62
2022/10/05 05:48:37;;;;;;;9.52;4.75;;;14.90;99.90;;;;;;5049256;28;20045;-62
2022/10/05 05:51:27;;;;;;;8.02;4.78;;;14.90;99.90;;;;;;5048876;28;20293;-63
2022/10/05 05:53:58;;;;;;;10.32;5.22;;;14.90;99.90;;;;;;5050758;28;20508;-62
2022/10/05 05:56:34;;;;;;;7.47;4.68;;;14.90;99.90;;;;;;5051642;28;20109;-62
2022/10/05 05:59:21;;;;;;;8.48;4.97;;;14.90;99.90;;;;;;5050216;28;20033;-62
2022/10/05 06:02:11;;;;;;;9.27;4.55;;;14.90;99.90;;;;;;5064087;28;20044;-62
2022/10/05 06:04:49;;;;;;;8.38;4.75;;;14.90;99.90;;;;;;5047826;28;20084;-62
2022/10/05 06:07:21;;;;;;;9.00;5.30;;;14.90;99.90;;;;;;5048777;28;20077;-62
2022/10/05 06:10:54;;;;;;;12.48;5.03;;;14.90;99.90;;;;;;5048279;28;20037;-62
2022/10/05 06:13:29;;;;;;;9.10;5.25;;;14.90;99.90;;;;;;5029658;28;20091;-62
2022/10/05 06:16:07;;;;;;;11.35;4.95;;;14.90;99.90;;;;;;5028678;28;20437;-63
2022/10/05 06:18:35;;;;;;;8.60;4.68;;;14.90;99.90;;;;;;5035578;28;20061;-62
2022/10/05 06:21:11;;;;;;;8.63;5.07;;;14.90;99.90;;;;;;5028816;28;20044;-62
2022/10/05 06:23:42;;;;;;;9.93;4.80;;;14.90;99.90;;;;;;5043901;28;20068;-62
2022/10/05 06:26:28;;;;;;;8.40;4.38;;;14.90;99.90;;;;;;5036462;28;20490;-62
2022/10/05 06:29:02;;;;;;;9.30;4.60;;;14.90;99.90;;;;;;5075421;28;20599;-62
2022/10/05 06:31:33;;;;;;;8.80;5.40;;;14.90;99.90;;;;;;5047113;28;20530;-62
2022/10/05 06:34:15;;;;;;;8.80;5.00;;;14.90;99.90;;;;;;5047306;28;20045;-62
2022/10/05 06:36:57;;;;;;;9.00;4.28;;;15.00;99.90;;;;;;5081743;28;20033;-62
2022/10/05 06:39:31;;;;;;;8.48;4.78;;;15.00;99.90;;;;;;5049080;28;20063;-63
2022/10/05 06:42:27;;;;;;;9.48;4.82;;;15.00;99.90;;;;;;5081569;28;20033;-62
2022/10/05 06:44:59;;;;;;;7.80;4.20;;;15.00;99.90;;;;;;5049850;28;20603;-62
2022/10/05 06:47:58;;;;;;;6.88;3.83;;;15.00;99.90;;;;;;5084260;28;20095;-62
2022/10/05 06:50:37;;;;;;;7.60;4.05;;;15.00;99.90;;;;;;5041413;28;20044;-62
2022/10/05 06:53:31;;;;;;;6.95;4.07;;;15.10;99.90;;;;;;5054220;28;20091;-62
2022/10/05 06:56:29;;;;;;;6.65;3.38;;;15.10;99.90;;;;;;5086273;28;20461;-62
2022/10/05 06:59:21;;;;;;;7.93;4.20;;;15.10;99.90;;;;;;5083678;28;20037;-62
2022/10/05 07:02:11;;;;;;;12.05;4.57;;;15.10;99.90;;;;;;5086767;28;20365;-65
2022/10/05 07:04:56;;;;;;;6.55;3.55;;;15.10;99.90;;;;;;5042826;28;20083;-62
2022/10/05 07:07:41;;;;;;;7.30;3.07;;;15.10;99.90;;;;;;5053900;28;20045;-63
2022/10/05 07:10:15;;;;;;;8.70;4.00;;;15.10;99.90;;;;;;5053200;28;20045;-62
2022/10/05 07:13:12;;;;;;;9.25;3.67;;;15.10;99.90;;;;;;5053630;28;20037;-63
2022/10/05 07:15:47;;;;;;;6.60;3.35;;;15.20;99.90;;;;;;5054376;28;20040;-63
2022/10/05 07:21:38;;;;;;;8.13;3.22;;;15.20;99.90;;;;;;5086355;28;20049;-63
2022/10/05 07:24:22;;;;;;;5.40;3.10;;;15.20;99.90;;;;;;5069469;28;20072;-63
2022/10/05 07:27:01;;;;;;;5.18;2.78;;;15.30;99.90;;;;;;5053126;28;20045;-63
2022/10/05 07:30:05;;;;;;;6.95;3.15;;;15.30;99.90;;;;;;5052873;28;20482;-63
2022/10/05 07:32:58;;;;;;;5.65;2.35;;;15.30;99.90;;;;;;5040201;28;20046;-62
2022/10/05 07:38:52;;;;;;;7.20;2.97;;;15.40;99.90;;;;;;5065996;28;20076;-62
2022/10/05 07:41:26;;;;;;;6.07;2.80;;;15.30;99.90;;;;;;5032877;28;20041;-62
2022/10/05 07:43:56;;;;;;;6.53;2.85;;;15.30;99.90;;;;;;5033890;28;20050;-62
2022/10/05 07:46:27;;;;;;;5.85;2.80;;;15.30;99.90;;;;;;5032318;28;20405;-62
2022/10/05 07:49:21;;;;;;;5.50;2.42;;;15.30;99.90;;;;;;5037215;28;20559;-62
2022/10/05 07:51:59;;;;;;;4.90;2.80;;;15.30;99.90;;;;;;5046456;28;20515;-62
2022/10/05 07:54:29;;;;;;;4.63;2.10;;;15.30;99.90;;;;;;5052538;28;20537;-62
2022/10/05 07:57:10;;;;;;;7.00;2.17;;;15.30;99.90;;;;;;5053340;28;20124;-62
2022/10/05 07:59:47;;;;;;;4.95;2.20;;;15.20;99.90;;;;;;5048557;28;20494;-62
2022/10/05 08:02:43;;;;;;;6.07;2.78;;;15.30;99.90;;;;;;5050484;28;20482;-62
2022/10/05 08:05:29;;;;;;;5.07;2.53;;;15.30;99.90;;;;;;5051713;28;20078;-63
2022/10/05 08:08:18;;;;;;;5.22;2.55;;;15.30;99.90;;;;;;5051265;28;20037;-63
2022/10/05 08:11:03;;;;;;;3.92;1.80;;;15.30;99.90;;;;;;5051806;28;20052;-63
2022/10/05 08:13:41;;;;;;;7.57;2.37;;;15.30;99.90;;;;;;5051982;28;20123;-63
2022/10/05 08:16:11;;;;;;;3.90;1.77;;;15.40;99.90;;;;;;5050921;28;20307;-62
2022/10/05 08:18:40;;;;;;;4.05;1.48;;;15.40;99.90;;;;;;5051667;28;20094;-63
2022/10/05 08:21:10;;;;;;;5.00;2.47;;;15.50;99.90;;;;;;5051873;28;20123;-63
2022/10/05 08:23:57;;;;;;;3.92;1.70;;;15.50;99.90;;;;;;5050856;28;20094;-63
2022/10/05 08:26:36;;;;;;;4.75;1.60;;;15.50;99.90;;;;;;5052302;28;20127;-63
2022/10/05 08:29:30;;;;;;;4.28;1.58;;;15.50;99.90;;;;;;5034032;28;20041;-63
2022/10/05 08:32:11;;;;;;;5.60;1.90;;;15.50;99.90;;;;;;5051593;28;20072;-63
2022/10/05 08:34:52;;;;;;;5.28;2.22;;;15.40;99.90;;;;;;5052020;28;20037;-62
2022/10/05 08:37:32;;;;;;;3.20;1.33;;;15.50;99.90;;;;;;5050125;28;20049;-62
2022/10/05 08:40:13;;;;;;;6.22;1.63;;;15.50;99.90;;;;;;5051161;28;20045;-62
2022/10/05 08:43:19;;;;;;;4.40;1.40;;;15.50;99.90;;;;;;5052485;28;20033;-63
2022/10/05 08:46:10;;;;;;;4.28;1.73;;;15.50;99.90;;;;;;5051444;28;20049;-62
2022/10/05 08:48:48;;;;;;;5.57;1.65;;;15.60;99.90;;;;;;5047002;28;20053;-63
2022/10/05 08:51:28;;;;;;;3.85;1.48;;;15.70;99.90;;;;;;5050672;28;20455;-62
2022/10/05 08:54:06;;;;;;;2.97;1.30;;;15.80;99.90;;;;;;5050923;28;20037;-63
2022/10/05 08:56:42;;;;;;;7.07;2.00;;;15.90;99.90;;;;;;5031207;28;20514;-63
2022/10/05 08:59:16;;;;;;;4.70;1.38;;;16.00;99.90;;;;;;5047603;28;20037;-63
2022/10/05 09:02:32;;;;;;;3.67;1.42;;;16.00;99.90;;;;;;5051623;28;20124;-63
2022/10/05 09:05:23;;;;;;;3.90;1.75;;;16.00;99.90;;;;;;5019849;28;20049;-62
2022/10/05 09:08:26;;;;;;;5.03;1.70;;;16.00;99.90;;;;;;5041612;28;20409;-62
2022/10/05 09:11:12;;;;;;;5.30;1.95;;;16.10;99.90;;;;;;5048466;28;20072;-62
2022/10/05 09:14:02;;;;;;;4.88;2.08;;;16.10;99.90;;;;;;5084334;28;20420;-62
2022/10/05 09:16:30;;;;;;;4.38;1.77;;;16.10;99.90;;;;;;5050463;28;20044;-62
2022/10/05 09:19:21;;;;;;;4.20;2.15;;;16.20;99.90;;;;;;5083367;28;20424;-63
2022/10/05 09:22:31;;;;;;;4.32;1.50;;;16.20;99.90;;;;;;5050892;28;20045;-62
2022/10/05 09:25:03;;;;;;;3.78;1.67;;;16.30;99.90;;;;;;5083271;28;20500;-62
2022/10/05 09:27:41;;;;;;;6.25;1.80;;;16.30;99.90;;;;;;5067342;28;20490;-62
2022/10/05 09:30:30;;;;;;;5.28;2.55;;;16.40;99.90;;;;;;5050111;28;20082;-62
2022/10/05 09:33:33;;;;;;;8.18;2.60;;;16.40;99.90;;;;;;5049702;28;20033;-63
2022/10/05 09:36:11;;;;;;;7.72;2.30;;;16.40;99.90;;;;;;5050800;28;20048;-63
2022/10/05 09:39:10;;;;;;;5.00;2.17;;;16.40;99.90;;;;;;5052318;28;20041;-63
2022/10/05 09:41:44;;;;;;;7.38;2.33;;;16.40;99.90;;;;;;5084162;28;20037;-62
2022/10/05 09:44:21;;;;;;;6.25;2.50;;;16.40;99.90;;;;;;5084237;28;20045;-62
2022/10/05 09:47:24;;;;;;;4.70;2.03;;;16.50;99.90;;;;;;5066463;28;20041;-62
2022/10/05 09:50:35;;;;;;;5.05;2.25;;;16.50;99.90;;;;;;5052450;28;20045;-63
2022/10/05 09:53:18;;;;;;;6.28;2.42;;;16.60;99.90;;;;;;5067601;28;20087;-62
2022/10/05 09:56:08;;;;;;;5.03;2.50;;;16.60;99.90;;;;;;5084674;28;20040;-63
2022/10/05 09:58:47;;;;;;;12.15;2.30;;;16.60;99.90;;;;;;5030689;28;20474;-63
2022/10/05 10:01:34;;;;;;;5.78;2.92;;;16.60;99.90;;;;;;5029872;28;20048;-63
2022/10/05 10:04:29;;;;;;;4.65;2.20;;;16.70;99.90;;;;;;5031878;28;20433;-62
2022/10/05 10:07:40;;;;;;;5.72;2.70;;;16.70;99.90;;;;;;5033985;28;20371;-63
2022/10/05 10:10:34;;;;;;;4.65;2.33;;;16.80;99.90;;;;;;5044748;28;20044;-63
2022/10/05 10:17:19;;;;;;;5.32;2.05;;;16.80;99.90;;;;;;5055337;28;20496;-63
2022/10/05 10:20:11;;;;;;;7.35;2.25;;;16.90;99.90;;;;;;5055687;28;20075;-63
2022/10/05 10:22:56;;;;;;;5.03;2.03;;;16.90;99.90;;;;;;5053038;28;20041;-62
2022/10/05 10:25:55;;;;;;;9.13;2.60;;;16.90;99.90;;;;;;5035353;28;20049;-62
2022/10/05 10:28:21;;;;;;;5.53;2.40;;;16.90;99.90;;;;;;5034586;28;20045;-62
2022/10/05 10:31:06;;;;;;;5.75;2.17;;;16.90;99.90;;;;;;5035337;28;20037;-62
2022/10/05 10:33:40;;;;;;;6.43;3.63;;;16.90;99.90;;;;;;5033997;28;20033;-63
2022/10/05 10:36:22;;;;;;;5.18;2.10;;;16.80;99.90;;;;;;5033703;28;20041;-63
2022/10/05 10:38:54;;;;;;;7.03;3.30;;;16.80;99.90;;;;;;5047394;28;20033;-63
2022/10/05 10:41:43;;;;;;;5.25;3.03;;;16.70;99.90;;;;;;5054937;28;20392;-63
2022/10/05 10:44:11;;;;;;;5.55;2.75;;;16.70;99.90;;;;;;5032983;28;20048;-63
2022/10/05 10:47:20;;;;;;;5.03;2.55;;;16.70;99.90;;;;;;5052611;28;20124;-63
2022/10/05 10:50:22;;;;;;;5.25;2.30;;;16.70;99.90;;;;;;5054226;28;20048;-62
2022/10/05 10:53:15;;;;;;;6.00;2.33;;;16.70;99.90;;;;;;5037071;28;20048;-64
2022/10/05 10:56:19;;;;;;;6.45;2.53;;;16.70;99.90;;;;;;5053954;28;20037;-63
2022/10/05 10:59:19;;;;;;;6.65;3.20;;;16.70;99.90;;;;;;4995912;28;20053;-65
2022/10/05 11:02:36;;;;;;;5.30;2.58;;;16.70;99.90;;;;;;5053383;28;20048;-64
2022/10/05 11:05:13;;;;;;;5.80;3.10;;;16.70;99.90;;;;;;5031752;28;20049;-63
2022/10/05 11:08:04;;;;;;;5.93;2.95;;;16.60;99.90;;;;;;5052459;28;20082;-64
2022/10/05 11:10:49;;;;;;;5.95;2.85;;;16.60;99.90;;;;;;5053606;28;20440;-63
2022/10/05 11:13:20;;;;;;;5.95;2.85;;;16.50;99.90;;;;;;5053150;28;20069;-63
2022/10/05 11:16:11;;;;;;;9.68;4.30;;;16.50;99.90;;;;;;5052829;28;20120;-63
2022/10/05 11:18:58;;;;;;;5.20;3.20;;;16.40;99.90;;;;;;5052562;28;20129;-63
2022/10/05 11:21:35;;;;;;;10.30;3.10;;;16.40;99.90;;;;;;5054234;28;20413;-63
2022/10/05 11:24:13;;;;;;;5.50;3.10;;;16.40;99.90;;;;;;5052044;28;20033;-63
2022/10/05 11:26:45;;;;;;;6.47;3.08;;;16.40;99.90;;;;;;5065944;28;20124;-63
2022/10/05 11:29:28;;;;;;;7.10;2.92;;;16.30;99.90;;;;;;5071597;28;20044;-63
2022/10/05 11:32:31;;;;;;;5.30;2.67;;;16.40;99.90;;;;;;5086027;28;20044;-63
2022/10/05 11:35:13;;;;;;;6.30;2.92;;;16.40;99.90;;;;;;5053022;28;20049;-63
2022/10/05 11:38:20;;;;;;;6.18;2.65;;;16.40;99.90;;;;;;5053872;28;20045;-63
2022/10/05 11:41:10;;;;;;;5.60;2.72;;;16.40;99.90;;;;;;5085215;28;20612;-63
2022/10/05 11:43:57;;;;;;;6.85;3.00;;;16.40;99.90;;;;;;5054026;28;20037;-63
2022/10/05 11:46:41;;;;;;;6.75;2.65;;;16.30;99.90;;;;;;5052769;28;20533;-63
2022/10/05 11:49:36;;;;;;;7.97;2.50;;;16.30;99.90;;;;;;5052132;28;20067;-63
2022/10/05 11:52:20;;;;;;;8.95;3.08;;;16.30;99.90;;;;;;5070275;28;20311;-63
2022/10/05 11:55:31;;;;;;;4.35;2.42;;;16.30;99.90;;;;;;5032659;28;20505;-62
2022/10/05 11:58:24;;;;;;;4.75;2.78;;;16.30;99.90;;;;;;5019707;28;20490;-62
2022/10/05 12:01:18;;;;;;;6.30;3.65;;;16.30;99.90;;;;;;5052124;28;20052;-62
2022/10/05 12:04:05;;;;;;;5.13;2.78;;;16.30;99.90;;;;;;5082270;28;20120;-63
2022/10/05 12:07:03;;;;;;;5.15;2.45;;;16.30;99.90;;;;;;5053598;28;20045;-63
2022/10/05 12:09:35;;;;;;;6.55;3.10;;;16.20;99.90;;;;;;5031839;28;20045;-62
2022/10/05 12:12:21;;;;;;;5.93;3.13;;;16.20;99.90;;;;;;5046198;28;20389;-62
2022/10/05 12:14:47;;;;;;;7.57;2.92;;;16.20;99.90;;;;;;5032559;28;20163;-63
2022/10/05 12:17:22;;;;;;;5.18;2.60;;;16.20;99.90;;;;;;5042559;28;20124;-63
2022/10/05 12:19:55;;;;;;;4.95;2.53;;;16.20;99.90;;;;;;5052303;28;20040;-63
2022/10/05 12:22:40;;;;;;;5.88;2.45;;;16.20;99.90;;;;;;5050650;28;20045;-63
2022/10/05 12:25:43;;;;;;;5.47;2.97;;;16.20;99.90;;;;;;5051977;28;20052;-63
2022/10/05 12:28:14;;;;;;;4.32;2.35;;;16.20;99.90;;;;;;5052128;28;20466;-62
2022/10/05 12:31:12;;;;;;;6.93;2.97;;;16.20;99.90;;;;;;5051921;28;20050;-62
2022/10/05 12:33:56;;;;;;;6.10;3.10;;;16.20;99.90;;;;;;5052279;28;20041;-62
2022/10/05 12:36:27;;;;;;;6.63;2.97;;;16.20;99.90;;;;;;5050730;28;20170;-63
2022/10/05 12:39:02;;;;;;;4.80;2.60;;;16.20;99.90;;;;;;5052534;28;20041;-63
2022/10/05 12:41:59;;;;;;;6.80;2.38;;;16.30;99.90;;;;;;5051426;28;20047;-63
2022/10/05 12:45:02;;;;;;;5.47;2.92;;;16.30;99.90;;;;;;5000168;28;20053;-63
2022/10/05 12:47:50;;;;;;;4.60;2.47;;;16.30;99.90;;;;;;5051002;28;20109;-62
2022/10/05 12:50:27;;;;;;;8.48;3.60;;;16.30;99.90;;;;;;5051747;28;20041;-63
2022/10/05 12:53:06;;;;;;;5.43;2.47;;;16.30;99.90;;;;;;5052530;28;20033;-63
2022/10/05 12:55:56;;;;;;;7.03;2.53;;;16.30;99.90;;;;;;5052423;28;20045;-63
2022/10/05 12:58:33;;;;;;;5.50;2.60;;;16.40;99.90;;;;;;5051146;28;20037;-63
2022/10/05 13:01:17;;;;;;;4.60;2.80;;;16.40;99.90;;;;;;5052268;28;20032;-63
2022/10/05 13:03:55;;;;;;;6.05;2.88;;;16.40;99.90;;;;;;5050769;28;20041;-63
2022/10/05 13:06:39;;;;;;;5.85;3.45;;;16.50;99.90;;;;;;5052266;28;20040;-63
2022/10/05 13:09:12;;;;;;;6.93;3.17;;;16.50;99.90;;;;;;5050968;28;20072;-63
2022/10/05 13:12:03;;;;;;;5.88;3.60;;;16.60;99.90;;;;;;5051781;28;20455;-63
2022/10/05 13:14:44;;;;;;;6.60;4.10;;;16.60;99.90;;;;;;5052115;28;20036;-62
2022/10/05 13:17:20;;;;;;;8.13;4.00;;;16.60;99.90;;;;;;5050402;28;20535;-63
2022/10/05 13:19:55;;;;;;;5.50;3.60;;;16.60;99.90;;;;;;5052257;28;20049;-63
2022/10/05 13:22:38;;;;;;;6.15;3.72;;;16.70;99.90;;;;;;5051845;28;20481;-63
2022/10/05 13:25:16;;;;;;;5.95;3.70;;;16.70;99.90;;;;;;5051387;28;20048;-62
2022/10/05 13:28:00;;;;;;;6.85;3.60;;;16.70;99.90;;;;;;5050921;28;20036;-63
2022/10/05 13:30:27;;;;;;;6.43;3.72;;;16.80;99.90;;;;;;5052032;28;20048;-62
2022/10/05 13:33:02;;;;;;;8.82;3.75;;;16.80;99.90;;;;;;5049737;28;20045;-62
2022/10/05 13:35:59;;;;;;;5.18;3.55;;;16.80;99.90;;;;;;5050576;28;20477;-63
2022/10/05 13:39:08;;;;;;;8.75;4.00;;;16.90;99.90;;;;;;5049812;28;20048;-62
2022/10/05 13:41:59;;;;;;;5.40;3.78;;;16.90;99.90;;;;;;5051605;28;20494;-63
2022/10/05 13:44:46;;;;;;;5.53;3.40;;;16.90;99.90;;;;;;5051063;28;20073;-64
2022/10/05 13:47:24;;;;;;;6.28;3.42;;;16.90;99.90;;;;;;5054915;28;20040;-63
2022/10/05 13:49:54;;;;;;;8.48;4.00;;;17.00;99.90;;;;;;5055526;28;21543;-63
2022/10/05 13:52:33;;;;;;;7.30;3.30;;;17.00;99.90;;;;;;5086896;28;20041;-68
2022/10/05 13:55:20;;;;;;;7.80;4.28;;;17.10;99.90;;;;;;5038496;28;20120;-66
2022/10/05 13:58:04;;;;;;;6.60;3.83;;;17.00;99.90;;;;;;5046941;28;20056;-66
2022/10/05 14:00:36;;;;;;;7.05;3.88;;;17.00;99.90;;;;;;5042388;28;20106;-66
2022/10/05 14:03:01;;;;;;;9.57;3.70;;;17.10;99.90;;;;;;5051741;28;20049;-67
2022/10/05 14:05:29;;;;;;;8.25;3.55;;;17.10;99.90;;;;;;5052434;28;20037;-66
2022/10/05 14:08:01;;;;;;;7.55;3.60;;;17.10;99.90;;;;;;5050445;28;20045;-66
2022/10/05 14:10:42;;;;;;;7.15;3.63;;;17.00;99.90;;;;;;5084716;28;20052;-66
2022/10/05 14:13:26;;;;;;;10.95;3.70;;;17.00;99.90;;;;;;5052583;28;20057;-64
2022/10/05 14:16:03;;;;;;;6.70;2.88;;;17.00;99.90;;;;;;5084897;28;20386;-64
2022/10/05 14:18:31;;;;;;;6.60;3.17;;;17.00;99.90;;;;;;5051256;28;20520;-66
2022/10/05 14:21:04;;;;;;;6.22;3.40;;;17.00;99.90;;;;;;5050154;28;20091;-65